.
WxDataArchive / Data Records for 2015-02-07
2015-02-06 February 2015 2015-02-08

Data Records for Saturday, 07 February 2015

Time	Temp	Chill	HIndex	Humid	Dewpt	 Wind 	HiWind	WindDir	Rain 	Barom
-----	----	-----	------	-----	-----	------	------	-------	-----	-----
00:00	25.7	25.7	25.7	74	18.6	0	3	135	0.00	30.072 
00:05	25.7	25.7	25.7	74	18.6	0	1	135	0.00	30.072 
00:10	25.6	25.6	25.6	74	18.5	0	0	---	0.00	30.072 
00:15	25.6	25.6	25.6	74	18.5	0	1	135	0.00	30.074 
00:20	25.6	25.6	25.6	74	18.5	0	1	135	0.00	30.074 
00:25	25.7	25.7	25.7	73	18.3	0	1	135	0.00	30.074 
00:30	25.8	25.8	25.8	73	18.4	0	1	135	0.00	30.060 
00:35	26.0	26.0	26.0	73	18.6	0	1	135	0.00	30.060 
00:40	26.1	26.1	26.1	73	18.7	0	2	135	0.00	30.060 
00:45	26.3	26.3	26.3	72	18.5	0	2	135	0.00	30.049 
00:50	26.4	26.4	26.4	72	18.6	0	2	135	0.00	30.049 
00:55	26.6	26.6	26.6	72	18.8	0	1	135	0.00	30.049 
01:00	26.6	26.6	26.6	71	18.5	0	1	135	0.00	30.034 
01:05	26.6	26.6	26.6	71	18.5	0	1	135	0.00	30.034 
01:10	26.6	26.6	26.6	71	18.5	0	2	135	0.00	30.034 
01:15	26.7	26.7	26.7	71	18.6	0	2	135	0.00	30.024 
01:20	26.7	26.7	26.7	71	18.6	0	1	135	0.00	30.024 
01:25	26.7	26.7	26.7	71	18.6	0	1	135	0.00	30.024 
01:30	26.7	26.7	26.7	71	18.6	0	1	135	0.00	30.025 
01:35	26.7	26.7	26.7	71	18.6	0	1	135	0.00	30.025 
01:40	26.6	26.6	26.6	71	18.5	0	2	135	0.00	30.025 
01:45	26.4	26.4	26.4	71	18.3	0	1	135	0.00	30.026 
01:50	26.3	26.3	26.3	71	18.2	0	0	---	0.00	30.026 
01:55	26.1	26.1	26.1	71	18.0	0	0	---	0.00	30.026 
02:00	25.8	25.8	25.8	72	18.0	0	0	---	0.00	30.017 
02:05	25.7	25.7	25.7	72	17.9	0	0	---	0.00	30.017 
02:10	25.6	25.6	25.6	72	17.8	0	1	135	0.00	30.017 
02:15	25.6	25.6	25.6	72	17.8	0	0	---	0.00	30.015 
02:20	25.4	25.4	25.4	73	18.0	0	0	---	0.00	30.015 
02:25	25.4	25.4	25.4	73	18.0	0	0	---	0.00	30.015 
02:30	25.3	25.3	25.3	73	17.9	0	0	---	0.00	30.009 
02:35	25.3	25.3	25.3	73	17.9	0	0	---	0.00	30.009 
02:40	25.4	25.4	25.4	73	18.0	0	0	---	0.00	30.009 
02:45	25.4	25.4	25.4	73	18.0	0	0	---	0.00	30.004 
02:50	25.4	25.4	25.4	73	18.0	0	1	135	0.00	30.004 
02:55	25.4	25.4	25.4	73	18.0	0	1	135	0.00	30.004 
03:00	25.6	25.6	25.6	73	18.2	0	1	135	0.00	29.996 
03:05	25.8	25.8	25.8	73	18.4	0	1	135	0.00	29.996 
03:10	26.3	26.3	26.3	73	18.8	0	1	135	0.00	29.996 
03:15	26.7	26.7	26.7	73	19.2	0	0	---	0.00	29.986 
03:20	26.9	26.9	26.9	73	19.4	0	1	135	0.00	29.986 
03:25	27.0	27.0	27.0	72	19.2	0	0	---	0.00	29.986 
03:30	27.2	27.2	27.2	72	19.4	0	1	135	0.00	29.980 
03:35	27.2	27.2	27.2	71	19.1	0	0	---	0.00	29.980 
03:40	27.2	27.2	27.2	71	19.1	0	0	---	0.00	29.980 
03:45	27.0	27.0	27.0	71	18.9	0	0	---	0.00	29.983 
03:50	26.9	26.9	26.9	71	18.8	0	0	---	0.00	29.983 
03:55	26.9	26.9	26.9	72	19.1	0	1	135	0.00	29.983 
04:00	26.7	26.7	26.7	72	18.9	0	0	---	0.00	29.983 
04:05	26.7	26.7	26.7	72	18.9	0	0	---	0.00	29.983 
04:10	26.6	26.6	26.6	72	18.8	0	0	---	0.00	29.983 
04:15	26.6	26.6	26.6	73	19.1	0	0	---	0.00	29.982 
04:20	26.4	26.4	26.4	73	18.9	0	0	---	0.00	29.982 
04:25	26.3	26.3	26.3	73	18.8	0	0	---	0.00	29.982 
04:30	26.3	26.3	26.3	73	18.8	0	0	---	0.00	29.968 
04:35	26.0	26.0	26.0	73	18.6	0	0	---	0.00	29.968 
04:40	26.0	26.0	26.0	74	18.9	0	0	---	0.00	29.968 
04:45	25.8	25.8	25.8	74	18.7	0	0	---	0.00	29.984 
04:50	25.7	25.7	25.7	74	18.6	0	0	---	0.00	29.984 
04:55	25.7	25.7	25.7	75	18.9	0	0	---	0.00	29.984 
05:00	25.8	25.8	25.8	74	18.7	0	0	---	0.00	29.973 
05:05	25.8	25.8	25.8	75	19.0	0	0	---	0.00	29.973 
05:10	25.8	25.8	25.8	75	19.0	0	1	135	0.00	29.973 
05:15	26.0	26.0	26.0	75	19.2	0	0	---	0.00	29.972 
05:20	25.8	25.8	25.8	75	19.0	0	0	---	0.00	29.972 
05:25	25.7	25.7	25.7	75	18.9	0	1	135	0.00	29.972 
05:30	25.6	25.6	25.6	75	18.8	0	0	---	0.00	29.987 
05:35	25.4	25.4	25.4	75	18.6	0	0	---	0.00	29.987 
05:40	25.1	25.1	25.1	75	18.3	0	0	---	0.00	29.987 
05:45	24.8	24.8	24.8	76	18.3	0	0	---	0.00	29.988 
05:50	24.5	24.5	24.5	76	18.0	0	0	---	0.00	29.988 
05:55	24.2	24.2	24.2	76	17.7	0	0	---	0.00	29.988 
06:00	23.9	23.9	23.9	77	17.8	0	0	---	0.00	29.991 
06:05	23.8	23.8	23.8	77	17.7	0	0	---	0.00	29.991 
06:10	23.6	23.6	23.6	78	17.8	0	0	---	0.00	29.991 
06:15	23.5	23.5	23.5	78	17.7	0	0	---	0.00	29.983 
06:20	23.5	23.5	23.5	79	18.0	0	0	---	0.00	29.983 
06:25	23.5	23.5	23.5	79	18.0	0	0	---	0.00	29.983 
06:30	23.5	23.5	23.5	80	18.3	0	0	---	0.00	29.967 
06:35	23.5	23.5	23.5	80	18.3	0	0	---	0.00	29.967 
06:40	23.5	23.5	23.5	81	18.5	0	0	---	0.00	29.967 
06:45	23.6	23.6	23.6	81	18.6	0	0	---	0.00	29.964 
06:50	23.8	23.8	23.8	81	18.8	0	0	---	0.00	29.964 
06:55	23.8	23.8	23.8	81	18.8	0	0	---	0.00	29.964 
07:00	23.8	23.8	23.8	81	18.8	0	0	---	0.00	29.974 
07:05	23.8	23.8	23.8	81	18.8	0	0	---	0.00	29.974 
07:10	23.8	23.8	23.8	81	18.8	0	0	---	0.00	29.974 
07:15	23.9	23.9	23.9	81	18.9	0	0	---	0.00	29.971 
07:20	24.1	24.1	24.1	81	19.1	0	0	---	0.00	29.971 
07:25	24.1	24.1	24.1	81	19.1	0	0	---	0.00	29.971 
07:30	24.1	24.1	24.1	81	19.1	0	0	---	0.00	29.963 
07:35	24.2	24.2	24.2	82	19.5	0	1	135	0.00	29.963 
07:40	24.7	24.7	24.7	82	20.0	0	1	135	0.00	29.963 
07:45	24.8	24.8	24.8	82	20.1	0	0	---	0.00	29.955 
07:50	25.1	25.1	25.1	83	20.7	0	1	135	0.00	29.955 
07:55	25.4	25.4	25.4	83	21.0	0	1	135	0.00	29.955 
08:00	25.8	25.8	25.8	83	21.4	0	1	135	0.00	29.938 
08:05	26.3	26.3	26.3	83	21.9	0	1	135	0.00	29.938 
08:10	26.7	26.7	26.7	84	22.5	0	2	135	0.00	29.938 
08:15	27.2	27.2	27.2	84	23.0	0	2	135	0.00	29.934 
08:20	27.6	27.6	27.6	84	23.4	0	1	135	0.00	29.934 
08:25	27.9	27.9	27.9	84	23.7	0	3	225	0.00	29.934 
08:30	28.4	28.4	28.4	84	24.2	0	1	225	0.00	29.950 
08:35	28.8	28.8	28.8	83	24.3	0	1	225	0.00	29.950 
08:40	29.4	29.4	29.4	83	24.9	0	2	248	0.00	29.950 
08:45	29.8	29.8	29.8	82	25.0	0	1	248	0.00	29.951 
08:50	30.3	30.3	30.3	82	25.5	0	1	248	0.00	29.951 
08:55	30.7	30.7	30.7	81	25.6	0	1	248	0.00	29.951 
09:00	31.3	31.3	31.3	80	25.9	0	1	248	0.00	29.950 
09:05	31.9	31.9	31.9	77	25.5	0	1	248	0.00	29.950 
09:10	32.4	32.4	32.4	77	26.0	0	1	225	0.00	29.950 
09:15	32.8	32.8	32.8	77	26.4	0	3	225	0.00	29.943 
09:20	33.4	33.4	33.4	76	26.7	0	2	225	0.00	29.943 
09:25	33.7	33.7	33.7	75	26.6	0	1	225	0.00	29.943 
09:30	34.1	34.1	34.1	75	27.0	0	2	225	0.00	29.949 
09:35	34.6	34.6	34.6	74	27.2	0	2	225	0.01	29.949 
09:40	34.9	34.9	34.9	74	27.5	0	2	225	0.00	29.949 
09:45	35.2	35.2	35.2	73	27.4	0	2	225	0.00	29.919 
09:50	35.5	35.5	35.5	73	27.7	0	2	225	0.00	29.919 
09:55	35.6	35.6	35.6	73	27.8	1	3	225	0.00	29.919 
10:00	35.8	35.8	35.8	73	28.0	1	3	270	0.00	29.919 
10:05	36.0	36.0	36.0	73	28.2	0	2	270	0.00	29.919 
10:10	36.3	36.3	36.3	73	28.5	1	3	270	0.01	29.919 
10:15	36.5	36.5	36.5	73	28.7	0	2	270	0.00	29.914 
10:20	36.5	36.5	36.5	73	28.7	1	3	248	0.01	29.914 
10:25	36.5	36.5	36.5	73	28.7	1	4	248	0.00	29.914 
10:30	36.6	36.6	36.6	73	28.8	1	4	248	0.01	29.914 
10:35	36.8	36.8	36.8	73	29.0	1	2	248	0.00	29.914 
10:40	37.0	37.0	37.0	73	29.2	1	3	248	0.00	29.914 
10:45	37.2	37.2	37.2	72	29.0	1	4	225	0.01	29.914 
10:50	37.3	37.3	37.3	72	29.1	1	5	248	0.00	29.914 
10:55	37.3	37.3	37.3	72	29.1	1	5	270	0.01	29.914 
11:00	37.6	37.6	37.6	72	29.4	1	3	68	0.00	29.900 
11:05	38.0	38.0	38.0	72	29.8	1	3	315	0.01	29.900 
11:10	38.3	38.3	38.3	71	29.7	1	3	202	0.01	29.900 
11:15	38.5	38.5	38.5	71	29.9	1	3	248	0.01	29.896 
11:20	38.8	38.8	38.8	71	30.2	1	2	248	0.01	29.896 
11:25	38.9	38.9	38.9	70	30.0	1	4	270	0.01	29.896 
11:30	38.9	38.9	38.9	71	30.3	1	4	270	0.01	29.891 
11:35	38.9	38.9	38.9	70	30.0	2	4	248	0.01	29.891 
11:40	38.9	38.9	38.9	71	30.3	1	3	270	0.01	29.891 
11:45	39.1	39.1	39.1	71	30.5	1	4	248	0.01	29.896 
11:50	39.2	39.2	39.2	71	30.6	1	3	248	0.01	29.896 
11:55	39.3	39.3	39.3	71	30.7	1	4	248	0.01	29.896 
12:00	39.5	39.5	39.5	70	30.5	1	4	248	0.01	29.893 
12:05	39.5	39.5	39.5	70	30.5	1	4	248	0.01	29.893 
12:10	39.6	39.6	39.6	70	30.6	1	3	248	0.01	29.893 
12:15	39.6	39.6	39.6	70	30.6	1	5	248	0.01	29.896 
12:20	39.8	39.8	39.8	71	31.2	0	3	248	0.00	29.896 
12:25	39.9	39.9	39.9	70	30.9	1	4	270	0.01	29.896 
12:30	40.1	40.1	40.1	70	31.1	1	4	270	0.01	29.887 
12:35	40.5	40.5	40.5	69	31.1	1	4	270	0.00	29.887 
12:40	40.6	40.6	40.6	69	31.2	1	3	270	0.01	29.887 
12:45	40.6	40.6	40.6	69	31.2	1	3	270	0.01	29.870 
12:50	40.8	40.8	40.8	69	31.4	1	4	270	0.01	29.870 
12:55	40.6	40.6	40.6	69	31.2	1	4	248	0.00	29.870 
13:00	40.6	40.6	40.6	69	31.2	1	4	248	0.01	29.862 
13:05	40.8	40.8	40.8	69	31.4	1	3	248	0.01	29.862 
13:10	41.1	41.1	41.1	69	31.7	1	4	248	0.01	29.862 
13:15	41.2	41.2	41.2	69	31.8	1	5	248	0.01	29.855 
13:20	41.2	41.2	41.2	69	31.8	1	3	248	0.00	29.855 
13:25	41.5	41.5	41.5	68	31.7	0	2	248	0.01	29.855 
13:30	41.8	41.8	41.8	68	32.0	0	2	248	0.01	29.855 
13:35	42.2	42.2	42.2	67	32.0	0	3	248	0.00	29.855 
13:40	42.3	42.3	42.3	66	31.8	1	6	248	0.01	29.855 
13:45	42.3	42.3	42.3	67	32.1	0	3	248	0.01	29.851 
13:50	42.3	42.3	42.3	67	32.1	0	3	248	0.01	29.851 
13:55	42.3	42.3	42.3	67	32.1	1	5	248	0.00	29.851 
14:00	42.3	42.3	42.3	67	32.1	0	2	248	0.01	29.846 
14:05	42.5	42.5	42.5	66	32.0	1	4	248	0.01	29.846 
14:10	42.3	42.3	42.3	67	32.1	1	5	248	0.00	29.846 
14:15	42.3	42.3	42.3	67	32.1	0	3	248	0.01	29.838 
14:20	42.3	42.3	42.3	67	32.1	0	2	248	0.00	29.838 
14:25	42.5	42.5	42.5	67	32.3	1	4	90	0.00	29.838 
14:30	42.6	42.6	42.6	67	32.4	1	3	248	0.01	29.839 
14:35	42.3	42.3	42.3	67	32.1	1	5	270	0.01	29.839 
14:40	42.3	42.3	42.3	67	32.1	0	2	270	0.00	29.839 
14:45	42.3	42.3	42.3	67	32.1	0	3	270	0.01	29.830 
14:50	42.5	42.5	42.5	67	32.3	1	3	270	0.00	29.830 
14:55	42.5	42.5	42.5	67	32.3	0	1	248	0.01	29.830 
15:00	42.2	42.2	42.2	67	32.0	1	5	112	0.00	29.828 
15:05	41.9	41.9	41.9	67	31.8	1	3	248	0.01	29.828 
15:10	41.6	41.6	41.6	68	31.8	0	1	112	0.00	29.828 
15:15	41.6	41.6	41.6	69	32.2	0	2	112	0.00	29.828 
15:20	41.9	41.9	41.9	68	32.1	0	2	112	0.01	29.828 
15:25	42.1	42.1	42.1	68	32.3	1	5	112	0.00	29.828 
15:30	41.9	41.9	41.9	67	31.8	0	2	90	0.00	29.822 
15:35	41.8	41.8	41.8	68	32.0	0	3	90	0.01	29.822 
15:40	41.8	41.8	41.8	68	32.0	0	2	90	0.00	29.822 
15:45	41.9	41.9	41.9	68	32.1	0	2	90	0.01	29.814 
15:50	41.9	41.9	41.9	67	31.8	0	1	90	0.00	29.814 
15:55	41.8	41.8	41.8	68	32.0	0	2	90	0.00	29.814 
16:00	41.6	41.6	41.6	68	31.8	0	2	90	0.01	29.816 
16:05	41.6	41.6	41.6	68	31.8	1	3	90	0.00	29.816 
16:10	41.8	41.8	41.8	68	32.0	0	3	90	0.00	29.816 
16:15	41.6	41.6	41.6	68	31.8	1	4	90	0.01	29.811 
16:20	41.6	41.6	41.6	69	32.2	0	3	90	0.00	29.811 
16:25	41.6	41.6	41.6	69	32.2	0	5	90	0.00	29.811 
16:30	41.8	41.8	41.8	68	32.0	0	1	90	0.00	29.814 
16:35	41.9	41.9	41.9	68	32.1	1	5	90	0.00	29.814 
16:40	41.9	41.9	41.9	68	32.1	0	2	90	0.01	29.814 
16:45	41.9	41.9	41.9	68	32.1	0	3	90	0.00	29.807 
16:50	41.9	41.9	41.9	69	32.5	0	1	90	0.00	29.807 
16:55	41.9	41.9	41.9	68	32.1	0	2	90	0.00	29.807 
17:00	41.9	41.9	41.9	68	32.1	0	2	90	0.01	29.802 
17:05	41.8	41.8	41.8	68	32.0	0	3	90	0.00	29.802 
17:10	41.6	41.6	41.6	68	31.8	0	2	90	0.00	29.802 
17:15	41.5	41.5	41.5	69	32.1	0	2	90	0.00	29.801 
17:20	41.3	41.3	41.3	69	31.9	0	2	90	0.00	29.801 
17:25	41.2	41.2	41.2	70	32.2	0	1	90	0.00	29.801 
17:30	41.2	41.2	41.2	70	32.2	0	4	90	0.01	29.797 
17:35	41.1	41.1	41.1	70	32.1	0	3	90	0.00	29.797 
17:40	40.9	40.9	40.9	71	32.2	0	1	90	0.00	29.797 
17:45	40.9	40.9	40.9	71	32.2	0	2	90	0.00	29.797 
17:50	40.8	40.8	40.8	71	32.1	0	1	90	0.00	29.797 
17:55	40.6	40.6	40.6	72	32.3	0	1	90	0.00	29.797 
18:00	40.5	40.5	40.5	72	32.2	0	1	90	0.00	29.793 
18:05	40.1	40.1	40.1	73	32.2	0	1	90	0.00	29.793 
18:10	39.6	39.6	39.6	74	32.0	0	0	---	0.00	29.793 
18:15	39.3	39.3	39.3	75	32.0	0	1	90	0.00	29.796 
18:20	38.9	38.9	38.9	76	32.0	0	0	---	0.00	29.796 
18:25	38.8	38.8	38.8	76	31.9	0	0	---	0.00	29.796 
18:30	38.3	38.3	38.3	77	31.7	0	0	---	0.00	29.791 
18:35	38.0	38.0	38.0	78	31.8	0	0	---	0.00	29.791 
18:40	37.8	37.8	37.8	79	31.9	0	0	---	0.00	29.791 
18:45	37.3	37.3	37.3	80	31.7	0	1	90	0.01	29.787 
18:50	37.3	37.3	37.3	80	31.7	0	1	90	0.00	29.787 
18:55	37.3	37.3	37.3	80	31.7	0	0	---	0.00	29.787 
19:00	37.2	37.2	37.2	80	31.6	0	0	---	0.00	29.785 
19:05	37.0	37.0	37.0	81	31.7	0	0	---	0.00	29.785 
19:10	36.8	36.8	36.8	81	31.5	0	0	---	0.00	29.785 
19:15	36.6	36.6	36.6	81	31.3	0	0	---	0.00	29.786 
19:20	36.3	36.3	36.3	81	31.0	0	0	---	0.00	29.786 
19:25	36.0	36.0	36.0	81	30.7	0	0	---	0.00	29.786 
19:30	35.9	35.9	35.9	81	30.6	0	0	---	0.00	29.776 
19:35	35.6	35.6	35.6	82	30.7	0	0	---	0.00	29.776 
19:40	35.5	35.5	35.5	83	30.9	0	1	90	0.00	29.776 
19:45	35.3	35.3	35.3	84	31.0	0	0	---	0.00	29.769 
19:50	35.5	35.5	35.5	84	31.2	0	0	---	0.00	29.769 
19:55	35.8	35.8	35.8	84	31.4	0	0	---	0.00	29.769 
20:00	36.0	36.0	36.0	85	31.9	0	1	90	0.00	29.759 
20:05	36.2	36.2	36.2	85	32.1	0	1	90	0.00	29.759 
20:10	36.3	36.3	36.3	84	31.9	0	1	90	0.00	29.759 
20:15	36.3	36.3	36.3	84	31.9	0	0	---	0.00	29.756 
20:20	36.2	36.2	36.2	84	31.8	0	0	---	0.00	29.756 
20:25	36.0	36.0	36.0	84	31.6	0	0	---	0.00	29.756 
20:30	35.9	35.9	35.9	84	31.5	0	0	---	0.00	29.763 
20:35	35.6	35.6	35.6	84	31.3	0	0	---	0.00	29.763 
20:40	35.5	35.5	35.5	85	31.4	0	0	---	0.00	29.763 
20:45	35.2	35.2	35.2	85	31.2	0	0	---	0.00	29.758 
20:50	35.0	35.0	35.0	85	31.0	0	0	---	0.00	29.758 
20:55	34.9	34.9	34.9	86	31.1	0	0	---	0.00	29.758 
21:00	34.6	34.6	34.6	86	30.9	0	0	---	0.00	29.755 
21:05	34.4	34.4	34.4	86	30.7	0	0	---	0.00	29.755 
21:10	34.3	34.3	34.3	86	30.6	0	0	---	0.00	29.755 
21:15	34.1	34.1	34.1	87	30.6	0	0	---	0.00	29.747 
21:20	33.8	33.8	33.8	87	30.3	0	0	---	0.00	29.747 
21:25	33.7	33.7	33.7	87	30.3	0	0	---	0.00	29.747 
21:30	33.5	33.5	33.5	87	30.1	0	0	---	0.00	29.745 
21:35	33.2	33.2	33.2	87	29.8	0	0	---	0.00	29.745 
21:40	33.1	33.1	33.1	88	29.9	0	0	---	0.00	29.745 
21:45	32.9	32.9	32.9	88	29.7	0	0	---	0.00	29.739 
21:50	32.8	32.8	32.8	88	29.6	0	0	---	0.00	29.739 
21:55	32.7	32.7	32.7	88	29.5	0	0	---	0.00	29.739 
22:00	32.5	32.5	32.5	89	29.6	0	0	---	0.00	29.734 
22:05	32.5	32.5	32.5	89	29.6	0	0	---	0.00	29.734 
22:10	32.5	32.5	32.5	89	29.6	0	0	---	0.00	29.734 
22:15	32.4	32.4	32.4	89	29.5	0	0	---	0.00	29.724 
22:20	32.2	32.2	32.2	89	29.3	0	0	---	0.00	29.724 
22:25	32.2	32.2	32.2	89	29.3	0	0	---	0.00	29.724 
22:30	32.1	32.1	32.1	89	29.2	0	0	---	0.00	29.718 
22:35	31.9	31.9	31.9	89	29.0	0	0	---	0.00	29.718 
22:40	31.8	31.8	31.8	90	29.2	0	0	---	0.00	29.718 
22:45	31.8	31.8	31.8	90	29.2	0	0	---	0.00	29.718 
22:50	31.6	31.6	31.6	90	29.0	0	0	---	0.00	29.718 
22:55	31.8	31.8	31.8	90	29.2	0	0	---	0.00	29.718 
23:00	31.8	31.8	31.8	90	29.2	0	0	---	0.00	29.711 
23:05	31.8	31.8	31.8	90	29.2	0	0	---	0.00	29.711 
23:10	31.8	31.8	31.8	90	29.2	0	0	---	0.00	29.711 
23:15	31.8	31.8	31.8	91	29.5	0	0	---	0.00	29.702 
23:20	31.8	31.8	31.8	91	29.5	0	0	---	0.00	29.702 
23:25	31.9	31.9	31.9	91	29.6	0	0	---	0.00	29.702 
23:30	31.9	31.9	31.9	91	29.6	0	0	---	0.00	29.703 
23:35	32.1	32.1	32.1	91	29.8	0	0	---	0.00	29.703 
23:40	32.1	32.1	32.1	91	29.8	0	0	---	0.00	29.703 
23:45	32.1	32.1	32.1	91	29.8	0	0	---	0.00	29.700 
23:50	32.1	32.1	32.1	91	29.8	0	0	---	0.00	29.700 
23:55	32.2	32.2	32.2	91	29.9	0	0	---	0.00	29.700 

CoCoRaHS
IN-AL-39
A2 Web Hosting
Creative Commons License
GoDaddy
search engine by freefind advanced

loaded 2018-11-17 06:40:51 • last modified 2010-11-18 10:43:29
Privacy PolicyDisclaimer
• wx.awcolley.com is powered by PmWiki v.2002016 •
• all content (unless otherwise noted) © 2018 A W Colley